createdAt,value
2023-03-06T00:02:52.151Z,-5.15
2023-03-06T00:06:17.799Z,-5.23
2023-03-06T00:09:41.249Z,-5.18
2023-03-06T00:13:08.117Z,-5.19
2023-03-06T00:16:32.129Z,-5.11
2023-03-06T00:19:57.622Z,-5.07
2023-03-06T00:23:23.648Z,-5.04
2023-03-06T00:26:46.815Z,-5.03
2023-03-06T00:30:13.563Z,-5.06
2023-03-06T00:33:37.594Z,-4.95
2023-03-06T00:37:00.816Z,-4.95
2023-03-06T00:40:25.927Z,-4.96
2023-03-06T00:43:48.781Z,-4.99
2023-03-06T00:47:13.074Z,-5.05
2023-03-06T00:50:37.402Z,-5.08
2023-03-06T00:54:00.837Z,-5.16
2023-03-06T00:57:25.123Z,-5.23
2023-03-06T01:00:49.224Z,-5.31
2023-03-06T01:04:12.684Z,-5.37
2023-03-06T01:07:37.791Z,-5.43
2023-03-06T01:11:01.978Z,-5.51
2023-03-06T01:14:27.191Z,-5.56
2023-03-06T01:17:54.143Z,-5.61
2023-03-06T01:21:16.896Z,-5.64
2023-03-06T01:24:41.264Z,-5.66
2023-03-06T01:28:04.876Z,-5.65
2023-03-06T01:31:30.735Z,-5.65
2023-03-06T01:34:57.267Z,-5.58
2023-03-06T01:38:22.144Z,-5.54
2023-03-06T01:41:46.129Z,-5.51
2023-03-06T01:45:49.437Z,-5.46
2023-03-06T01:49:23.872Z,-5.44
2023-03-06T01:52:51.744Z,-5.38
2023-03-06T01:56:17.878Z,-5.34
2023-03-06T01:59:45.853Z,-5.28
2023-03-06T02:03:13.324Z,-5.18
2023-03-06T02:06:43.250Z,-5.17
2023-03-06T02:10:09.172Z,-5.20
2023-03-06T02:13:32.988Z,-5.11
2023-03-06T02:16:57.897Z,-5.07
2023-03-06T02:20:28.807Z,-5.07
2023-03-06T02:24:04.977Z,-5.03
2023-03-06T02:27:30.805Z,-5.05
2023-03-06T02:30:56.994Z,-5.04
2023-03-06T02:34:51.058Z,-5.02
2023-03-06T02:38:19.826Z,-5.00
2023-03-06T02:41:43.091Z,-4.98
2023-03-06T02:45:12.074Z,-5.03
2023-03-06T02:48:35.971Z,-4.97
2023-03-06T02:52:00.154Z,-4.97
2023-03-06T02:55:24.038Z,-4.95
2023-03-06T02:58:47.103Z,-4.92
2023-03-06T03:02:13.027Z,-4.96
2023-03-06T03:05:38.764Z,-5.02
2023-03-06T03:09:02.223Z,-5.04
2023-03-06T03:12:25.804Z,-5.12
2023-03-06T03:16:01.081Z,-5.26
2023-03-06T03:19:26.092Z,-5.44
2023-03-06T03:22:55.478Z,-5.35
2023-03-06T03:26:21.910Z,-5.32
2023-03-06T03:29:44.869Z,-5.31
2023-03-06T03:33:08.649Z,-5.28
2023-03-06T03:36:33.969Z,-5.24
2023-03-06T03:39:57.117Z,-5.27
2023-03-06T03:43:21.122Z,-5.40
2023-03-06T03:46:45.245Z,-5.15
2023-03-06T03:50:10.725Z,-5.09
2023-03-06T03:53:36.244Z,-5.04
2023-03-06T03:56:59.912Z,-5.05
2023-03-06T04:00:24.126Z,-4.94
2023-03-06T04:03:47.779Z,-4.84
2023-03-06T04:07:11.968Z,-4.86
2023-03-06T04:10:37.694Z,-4.77
2023-03-06T04:14:01.378Z,-4.74
2023-03-06T04:17:25.356Z,-4.82
2023-03-06T04:20:50.794Z,-4.74
2023-03-06T04:24:15.070Z,-4.74
2023-03-06T04:27:41.200Z,-4.73
2023-03-06T04:31:04.544Z,-4.74
2023-03-06T04:34:28.763Z,-4.74
2023-03-06T04:37:52.178Z,-4.75
2023-03-06T04:41:15.165Z,-4.78
2023-03-06T04:44:41.021Z,-4.78
2023-03-06T04:48:06.068Z,-4.89
2023-03-06T04:51:30.169Z,-4.87
2023-03-06T04:54:54.430Z,-4.89
2023-03-06T04:58:17.976Z,-4.91
2023-03-06T05:01:43.093Z,-4.95
2023-03-06T05:05:07.885Z,-4.90
2023-03-06T05:08:31.061Z,-4.89
2023-03-06T05:11:54.114Z,-4.93
2023-03-06T05:15:19.325Z,-5.00
2023-03-06T05:18:44.946Z,-4.84
2023-03-06T05:22:08.727Z,-4.82
2023-03-06T05:25:32.717Z,-4.79
2023-03-06T05:28:56.810Z,-4.82
2023-03-06T05:32:20.833Z,-4.78
2023-03-06T05:35:51.036Z,-4.89
2023-03-06T05:39:15.496Z,-4.82
2023-03-06T05:42:39.497Z,-4.79
2023-03-06T05:46:05.150Z,-4.73
2023-03-06T05:49:29.818Z,-4.73
2023-03-06T05:52:56.187Z,-4.72
2023-03-06T05:56:20.448Z,-4.70
2023-03-06T05:59:46.337Z,-4.67
2023-03-06T06:03:10.707Z,-4.62
2023-03-06T06:06:35.158Z,-4.51
2023-03-06T06:10:03.537Z,-4.41
2023-03-06T06:13:28.964Z,-4.31
2023-03-06T06:16:53.355Z,-4.23
2023-03-06T06:20:18.512Z,-4.19
2023-03-06T06:23:43.084Z,-4.11
2023-03-06T06:27:09.308Z,-4.12
2023-03-06T06:30:34.315Z,-4.07
2023-03-06T06:33:58.090Z,-3.87
2023-03-06T06:37:22.210Z,-3.81
2023-03-06T06:41:04.244Z,-3.69
2023-03-06T06:44:32.551Z,-3.54
2023-03-06T06:47:55.657Z,-3.37
2023-03-06T06:51:19.106Z,-3.24
2023-03-06T06:54:42.273Z,-3.23
2023-03-06T06:58:06.271Z,-3.34
2023-03-06T07:01:32.109Z,-3.34
2023-03-06T07:05:04.064Z,-3.34
2023-03-06T07:08:27.113Z,-3.33
2023-03-06T07:11:51.296Z,-3.29
2023-03-06T07:15:16.292Z,-3.15
2023-03-06T07:18:41.938Z,-2.94
2023-03-06T07:22:06.022Z,-2.67
2023-03-06T07:25:30.312Z,-2.34
2023-03-06T07:28:55.278Z,-2.07
2023-03-06T07:32:18.936Z,-1.77
2023-03-06T07:35:44.032Z,-1.53
2023-03-06T07:39:07.791Z,-1.41
2023-03-06T07:42:31.154Z,-1.30
2023-03-06T07:45:59.441Z,-1.26
2023-03-06T07:49:22.917Z,-1.24
2023-03-06T07:52:48.327Z,-1.26
2023-03-06T07:56:13.333Z,-1.21
2023-03-06T07:59:37.437Z,-1.23
2023-03-06T08:03:01.293Z,-1.27
2023-03-06T08:06:27.055Z,-1.34
2023-03-06T08:09:53.066Z,-1.34
2023-03-06T08:13:17.146Z,-1.39
2023-03-06T08:16:41.227Z,-1.31
2023-03-06T08:20:05.323Z,-1.18
2023-03-06T08:23:28.363Z,-1.18
2023-03-06T08:26:54.312Z,-1.08
2023-03-06T08:30:18.498Z,-1.06
2023-03-06T08:33:44.019Z,-1.05
2023-03-06T08:37:07.103Z,-0.78
2023-03-06T08:40:30.961Z,-0.60
2023-03-06T08:43:56.173Z,-0.67
2023-03-06T08:47:20.259Z,-0.77
2023-03-06T08:50:44.859Z,-0.58
2023-03-06T08:54:08.344Z,-0.42
2023-03-06T08:57:32.388Z,-0.52
2023-03-06T09:00:57.377Z,-0.55
2023-03-06T09:04:21.625Z,-0.50
2023-03-06T09:07:45.401Z,-0.33
2023-03-06T09:11:11.395Z,-0.27
2023-03-06T09:14:35.303Z,-0.11
2023-03-06T09:18:00.226Z,0.08
2023-03-06T09:21:25.643Z,0.03
2023-03-06T09:24:49.409Z,0.19
2023-03-06T09:28:14.625Z,0.61
2023-03-06T09:31:37.994Z,1.00
2023-03-06T09:35:04.421Z,1.13
2023-03-06T09:38:29.655Z,0.98
2023-03-06T09:41:54.377Z,0.84
2023-03-06T09:45:21.195Z,0.62
2023-03-06T09:48:54.293Z,0.57
2023-03-06T09:52:40.192Z,0.33
2023-03-06T09:56:08.404Z,0.10
2023-03-06T09:59:34.200Z,-0.07
2023-03-06T10:03:06.642Z,-0.12
2023-03-06T10:06:33.331Z,-0.14
2023-03-06T10:10:02.537Z,-0.14
2023-03-06T10:13:30.205Z,-0.13
2023-03-06T10:16:53.369Z,-0.14
2023-03-06T10:20:24.320Z,-0.13
2023-03-06T10:23:56.303Z,-0.06
2023-03-06T10:27:32.168Z,-0.04
2023-03-06T10:31:04.531Z,-0.01
2023-03-06T10:34:35.072Z,0.14
2023-03-06T10:38:07.476Z,0.19
2023-03-06T10:41:32.666Z,0.22
2023-03-06T10:45:10.280Z,0.23
2023-03-06T10:48:36.519Z,0.13
2023-03-06T10:52:03.297Z,0.08
2023-03-06T10:55:31.651Z,0.05
2023-03-06T10:59:08.516Z,0.02
2023-03-06T11:02:37.324Z,-0.07
2023-03-06T11:06:12.667Z,-0.22
2023-03-06T11:09:35.646Z,-0.49
2023-03-06T11:13:01.257Z,-0.50
2023-03-06T11:16:31.021Z,-0.61
2023-03-06T11:20:18.994Z,-0.64
2023-03-06T11:23:46.910Z,-0.55
2023-03-06T11:27:25.228Z,-0.48
2023-03-06T11:30:52.275Z,-0.31
2023-03-06T11:34:23.529Z,-0.19
2023-03-06T11:37:55.392Z,-0.01
2023-03-06T11:41:26.538Z,0.23
2023-03-06T11:45:00.352Z,0.49
2023-03-06T11:48:31.114Z,0.65
2023-03-06T11:51:57.536Z,0.57
2023-03-06T11:55:38.013Z,0.53
2023-03-06T11:59:28.730Z,0.30
2023-03-06T12:03:24.566Z,0.18
2023-03-06T12:06:58.565Z,0.09
2023-03-06T12:10:32.404Z,0.07
2023-03-06T12:14:23.720Z,-0.09
2023-03-06T12:18:07.674Z,-0.30
2023-03-06T12:21:42.718Z,-0.22
2023-03-06T12:25:38.340Z,-0.11
2023-03-06T12:29:20.679Z,0.00
2023-03-06T12:32:52.769Z,0.18
2023-03-06T12:36:29.923Z,0.28
2023-03-06T12:40:16.749Z,0.50
2023-03-06T12:44:05.106Z,0.73
2023-03-06T12:47:31.440Z,0.62
2023-03-06T12:50:55.611Z,0.45
2023-03-06T12:54:24.322Z,0.22
2023-03-06T12:57:49.330Z,0.20
2023-03-06T13:01:20.622Z,0.27
2023-03-06T13:05:03.312Z,0.39
2023-03-06T13:08:59.139Z,0.64
2023-03-06T13:12:40.641Z,0.93
2023-03-06T13:16:14.561Z,1.08
2023-03-06T13:19:38.536Z,1.21
2023-03-06T13:23:44.607Z,1.25
2023-03-06T13:27:11.622Z,1.31
2023-03-06T13:30:47.572Z,1.46
2023-03-06T13:34:37.833Z,1.51
2023-03-06T13:38:03.339Z,1.45
2023-03-06T13:41:45.659Z,1.31
2023-03-06T13:45:11.896Z,1.25
2023-03-06T13:48:44.774Z,1.06
2023-03-06T13:52:12.559Z,1.06
2023-03-06T13:55:46.580Z,1.01
2023-03-06T13:59:35.134Z,1.04
2023-03-06T14:03:31.894Z,1.17
2023-03-06T14:07:07.250Z,1.34
2023-03-06T14:10:35.824Z,1.44
2023-03-06T14:14:00.225Z,1.32
2023-03-06T14:17:30.459Z,1.35
2023-03-06T14:20:59.456Z,1.29
2023-03-06T14:24:35.527Z,1.33
2023-03-06T14:28:09.128Z,1.31
2023-03-06T14:31:46.035Z,1.17
2023-03-06T14:40:11.404Z,0.91
2023-03-06T14:51:20.510Z,0.53
2023-03-06T14:54:47.318Z,0.49
2023-03-06T14:58:16.524Z,0.38
2023-03-06T15:01:43.554Z,0.16
2023-03-06T15:05:16.026Z,-0.02
2023-03-06T15:08:42.718Z,-0.23
2023-03-06T15:12:09.662Z,-0.35
2023-03-06T15:15:35.599Z,-0.44
2023-03-06T15:19:01.325Z,-0.55
2023-03-06T15:22:31.744Z,-0.80
2023-03-06T15:26:00.751Z,-0.85
2023-03-06T15:29:26.176Z,-1.01
2023-03-06T15:32:52.608Z,-1.08
2023-03-06T15:36:29.905Z,-1.20
2023-03-06T15:40:09.656Z,-1.25
2023-03-06T15:43:38.359Z,-1.43
2023-03-06T15:47:08.680Z,-1.58
2023-03-06T15:50:34.636Z,-1.70
2023-03-06T15:54:11.994Z,-1.74
2023-03-06T15:57:35.606Z,-1.86
2023-03-06T16:01:00.837Z,-1.98
2023-03-06T16:04:24.996Z,-2.10
2023-03-06T16:07:50.939Z,-2.28
2023-03-06T16:11:18.600Z,-2.39
2023-03-06T16:14:42.473Z,-2.49
2023-03-06T16:22:55.648Z,-2.72
2023-03-06T16:29:49.848Z,-2.98
2023-03-06T16:33:13.631Z,-3.00
2023-03-06T16:36:37.611Z,-3.10
2023-03-06T16:40:03.113Z,-3.23
2023-03-06T16:43:27.216Z,-3.28
2023-03-06T16:46:52.746Z,-3.40
2023-03-06T16:50:25.642Z,-3.41
2023-03-06T16:53:49.517Z,-3.53
2023-03-06T16:57:16.368Z,-3.55
2023-03-06T17:00:39.744Z,-3.60
2023-03-06T17:04:04.838Z,-3.64
2023-03-06T17:07:29.750Z,-3.80
2023-03-06T17:10:54.261Z,-3.75
2023-03-06T17:14:19.564Z,-3.82
2023-03-06T17:17:42.726Z,-3.89
2023-03-06T17:21:06.508Z,-4.05
2023-03-06T17:24:31.001Z,-4.00
2023-03-06T17:27:54.864Z,-4.04
2023-03-06T17:31:21.750Z,-3.98
2023-03-06T17:34:46.028Z,-3.91
2023-03-06T17:38:10.521Z,-4.01
2023-03-06T17:41:35.094Z,-4.00
2023-03-06T17:44:58.874Z,-4.00
2023-03-06T17:48:24.895Z,-3.90
2023-03-06T17:51:49.218Z,-3.85
2023-03-06T17:55:14.021Z,-3.85
2023-03-06T17:58:38.007Z,-3.83
2023-03-06T18:02:02.224Z,-3.87
2023-03-06T18:05:27.885Z,-3.89
2023-03-06T18:08:52.940Z,-3.82
2023-03-06T18:12:16.714Z,-3.86
2023-03-06T18:15:42.126Z,-3.83
2023-03-06T18:19:08.922Z,-3.87
2023-03-06T18:22:34.505Z,-3.93
2023-03-06T18:26:09.938Z,-3.99
2023-03-06T18:29:33.421Z,-3.93
2023-03-06T18:32:59.192Z,-3.97
2023-03-06T18:36:25.377Z,-3.93
2023-03-06T18:39:51.414Z,-4.09
2023-03-06T18:43:15.503Z,-4.04
2023-03-06T18:46:40.612Z,-4.11
2023-03-06T18:50:04.599Z,-4.22
2023-03-06T18:53:28.372Z,-4.23
2023-03-06T18:56:53.072Z,-4.34
2023-03-06T19:00:17.776Z,-4.35
2023-03-06T19:03:43.642Z,-4.49
2023-03-06T19:07:07.688Z,-4.47
2023-03-06T19:10:32.086Z,-4.54
2023-03-06T19:13:57.299Z,-4.64
2023-03-06T19:17:20.955Z,-4.72
2023-03-06T19:20:44.959Z,-4.72
2023-03-06T19:24:14.685Z,-4.78
2023-03-06T19:27:39.968Z,-4.78
2023-03-06T19:31:10.336Z,-4.82
2023-03-06T19:34:33.802Z,-4.87
2023-03-06T19:37:57.791Z,-4.99
2023-03-06T19:41:21.786Z,-4.92
2023-03-06T19:44:45.757Z,-5.02
2023-03-06T19:48:12.812Z,-4.94
2023-03-06T19:51:36.892Z,-4.97
2023-03-06T19:55:00.161Z,-4.95
2023-03-06T19:58:23.640Z,-5.17
2023-03-06T20:01:47.577Z,-5.01
2023-03-06T20:05:13.142Z,-4.98
2023-03-06T20:08:37.004Z,-4.96
2023-03-06T20:12:00.191Z,-4.97
2023-03-06T20:15:23.958Z,-5.10
2023-03-06T20:18:48.142Z,-4.98
2023-03-06T20:22:13.870Z,-5.04
2023-03-06T20:25:38.671Z,-5.02
2023-03-06T20:29:02.255Z,-5.07
2023-03-06T20:32:25.940Z,-5.14
2023-03-06T20:35:51.029Z,-5.24
2023-03-06T20:39:17.983Z,-5.25
2023-03-06T20:42:40.941Z,-5.23
2023-03-06T20:46:06.717Z,-5.29
2023-03-06T20:49:30.759Z,-5.38
2023-03-06T20:52:56.176Z,-5.33
2023-03-06T20:56:22.208Z,-5.38
2023-03-06T20:59:45.781Z,-5.47
2023-03-06T21:03:09.356Z,-5.50
2023-03-06T21:06:32.832Z,-5.60
2023-03-06T21:09:56.710Z,-5.60
2023-03-06T21:13:21.716Z,-5.76
2023-03-06T21:16:46.082Z,-5.78
2023-03-06T21:20:11.058Z,-5.76
2023-03-06T21:23:35.206Z,-5.82
2023-03-06T21:26:59.294Z,-5.88
2023-03-06T21:30:25.089Z,-6.00
2023-03-06T21:33:50.237Z,-6.08
2023-03-06T21:37:13.607Z,-6.08
2023-03-06T21:40:38.076Z,-6.15
2023-03-06T21:44:04.238Z,-6.26
2023-03-06T21:47:32.081Z,-6.26
2023-03-06T21:50:55.886Z,-6.26
2023-03-06T21:54:19.087Z,-6.25
2023-03-06T21:57:42.087Z,-6.36
2023-03-06T22:01:11.022Z,-6.43
2023-03-06T22:04:37.039Z,-6.58
2023-03-06T22:08:01.846Z,-6.62
2023-03-06T22:11:27.400Z,-6.74
2023-03-06T22:14:50.326Z,-6.76
2023-03-06T22:18:16.467Z,-6.82
2023-03-06T22:21:41.876Z,-6.97
2023-03-06T22:25:06.715Z,-7.02
2023-03-06T22:28:30.252Z,-7.24
2023-03-06T22:31:54.182Z,-7.24
2023-03-06T22:35:19.111Z,-7.34
2023-03-06T22:38:45.994Z,-7.40
2023-03-06T22:42:10.285Z,-7.46
2023-03-06T22:45:37.563Z,-7.52
2023-03-06T22:49:02.049Z,-7.58
2023-03-06T22:52:25.713Z,-7.69
2023-03-06T22:55:51.643Z,-7.85
2023-03-06T22:59:16.855Z,-7.84
2023-03-06T23:02:45.553Z,-7.93
2023-03-06T23:06:12.111Z,-7.92
2023-03-06T23:09:36.285Z,-8.03
2023-03-06T23:13:01.918Z,-8.04
2023-03-06T23:16:26.153Z,-8.14
2023-03-06T23:19:54.386Z,-8.24
2023-03-06T23:23:18.266Z,-8.23
2023-03-06T23:26:42.349Z,-8.36
2023-03-06T23:30:09.519Z,-8.33
2023-03-06T23:33:33.083Z,-8.48
2023-03-06T23:36:56.762Z,-8.50
2023-03-06T23:40:20.949Z,-8.57
2023-03-06T23:43:46.983Z,-8.69
2023-03-06T23:47:12.179Z,-8.90
2023-03-06T23:50:37.817Z,-8.81
2023-03-06T23:54:02.419Z,-8.94
2023-03-06T23:57:26.025Z,-8.99
